Time;durP1;ratioP1;P1;durP2;ratioP2;P2;SDS_P1;SDS_P2;PMS_P1;PMS_P2;Temp;Humidity;BMP_temperature;BMP_pressure;BME280_temperature;BME280_humidity;BME280_pressure;Samples;Min_cycle;Max_cycle;Signal;HPM_P1;HPM_P2
2022/08/15 00:02:00;;;;;;;6.22;4.68;;;23.40;99.90;;;;;;5002799;28;19913;-74
2022/08/15 00:04:27;;;;;;;7.10;4.80;;;23.40;99.90;;;;;;4987091;28;20554;-74
2022/08/15 00:06:53;;;;;;;6.22;4.28;;;23.40;99.90;;;;;;5002551;28;20384;-74
2022/08/15 00:09:24;;;;;;;6.70;4.47;;;23.40;99.90;;;;;;4986910;28;20046;-74
2022/08/15 00:11:56;;;;;;;7.50;5.40;;;23.30;99.90;;;;;;4988927;28;20042;-74
2022/08/15 00:14:30;;;;;;;6.07;4.53;;;23.40;99.90;;;;;;4984860;28;20042;-74
2022/08/15 00:16:56;;;;;;;8.82;4.57;;;23.30;99.90;;;;;;4980902;28;20329;-74
2022/08/15 00:19:29;;;;;;;6.95;4.25;;;23.30;99.90;;;;;;4974357;28;20034;-74
2022/08/15 00:21:59;;;;;;;9.07;5.25;;;23.30;99.90;;;;;;4985657;28;20474;-74
2022/08/15 00:24:27;;;;;;;7.03;4.97;;;23.30;99.90;;;;;;4985284;28;20413;-73
2022/08/15 00:26:55;;;;;;;7.35;5.30;;;23.30;99.90;;;;;;5003304;28;20053;-73
2022/08/15 00:29:24;;;;;;;8.30;5.15;;;23.20;99.90;;;;;;4982776;28;20049;-73
2022/08/15 00:31:53;;;;;;;6.90;4.72;;;23.30;99.90;;;;;;4983466;28;20601;-73
2022/08/15 00:34:21;;;;;;;5.50;4.63;;;23.20;99.90;;;;;;4999787;28;20165;-73
2022/08/15 00:36:50;;;;;;;7.05;5.07;;;23.20;99.90;;;;;;5001965;28;20503;-73
2022/08/15 00:39:18;;;;;;;8.18;5.32;;;23.20;99.90;;;;;;4989204;28;20034;-74
2022/08/15 00:41:46;;;;;;;7.10;4.60;;;23.10;99.90;;;;;;4987045;28;20072;-73
2022/08/15 00:44:24;;;;;;;7.50;5.18;;;23.10;99.90;;;;;;4999089;28;20046;-73
2022/08/15 00:47:03;;;;;;;6.72;5.10;;;23.10;99.90;;;;;;4984289;28;20045;-73
2022/08/15 00:49:32;;;;;;;9.50;5.80;;;23.10;99.90;;;;;;5000307;28;20042;-73
2022/08/15 00:52:13;;;;;;;7.35;5.47;;;23.00;99.90;;;;;;4981658;28;20045;-73
2022/08/15 00:54:53;;;;;;;7.88;5.45;;;23.00;99.90;;;;;;4999890;28;20054;-73
2022/08/15 00:57:28;;;;;;;8.05;4.95;;;23.00;99.90;;;;;;4986467;28;20202;-73
2022/08/15 00:59:59;;;;;;;8.15;5.20;;;22.90;99.90;;;;;;5002173;28;20407;-72
2022/08/15 01:02:30;;;;;;;8.05;5.85;;;22.90;99.90;;;;;;5009273;28;20084;-73
2022/08/15 01:04:56;;;;;;;8.07;5.47;;;22.90;99.90;;;;;;4998496;28;20316;-73
2022/08/15 01:07:22;;;;;;;8.10;5.55;;;22.90;99.90;;;;;;4991095;28;20045;-73
2022/08/15 01:09:50;;;;;;;9.18;5.78;;;22.90;99.90;;;;;;4986500;28;20041;-72
2022/08/15 01:12:19;;;;;;;8.65;5.88;;;22.80;99.90;;;;;;5007132;28;20496;-72
2022/08/15 01:14:49;;;;;;;9.98;5.82;;;22.80;99.90;;;;;;5008975;28;20038;-72
2022/08/15 01:17:17;;;;;;;9.35;6.05;;;22.80;99.90;;;;;;5001331;28;20042;-72
2022/08/15 01:19:51;;;;;;;9.15;6.10;;;22.80;99.90;;;;;;5011246;28;20415;-72
2022/08/15 01:22:42;;;;;;;8.05;6.05;;;22.70;99.90;;;;;;4986575;28;20038;-72
2022/08/15 01:25:17;;;;;;;8.38;5.88;;;22.70;99.90;;;;;;4980446;28;20046;-72
2022/08/15 01:27:52;;;;;;;9.15;6.22;;;22.70;99.90;;;;;;5000611;28;20544;-72
2022/08/15 01:30:22;;;;;;;8.70;5.70;;;22.60;99.90;;;;;;5007140;28;20042;-72
2022/08/15 01:32:47;;;;;;;9.68;6.53;;;22.60;99.90;;;;;;4988171;28;20042;-72
2022/08/15 01:35:14;;;;;;;;;;;22.60;99.90;;;;;;5012997;28;20062;-73
2022/08/15 01:37:41;;;;;;;10.25;6.30;;;22.50;99.90;;;;;;4988030;28;20215;-73
2022/08/15 01:40:36;;;;;;;9.43;7.00;;;22.50;99.90;;;;;;4977261;28;20045;-73
2022/08/15 01:43:03;;;;;;;10.35;6.72;;;22.50;99.90;;;;;;4984853;28;20046;-72
2022/08/15 01:45:30;;;;;;;14.13;6.82;;;22.40;99.90;;;;;;4985654;28;20045;-73
2022/08/15 01:48:07;;;;;;;9.98;6.72;;;22.40;99.90;;;;;;5012751;28;20101;-72
2022/08/15 01:50:38;;;;;;;10.10;6.53;;;22.40;99.90;;;;;;5013527;28;20048;-72
2022/08/15 01:55:48;;;;;;;9.52;6.22;;;22.40;99.90;;;;;;4997428;28;20112;-74
2022/08/15 01:58:15;;;;;;;11.38;7.20;;;22.30;99.90;;;;;;4984913;28;20053;-74
2022/08/15 02:00:51;;;;;;;9.98;6.45;;;22.30;99.90;;;;;;4999227;28;20522;-74
2022/08/15 02:03:17;;;;;;;;;;;22.30;99.90;;;;;;4986721;28;20372;-74
2022/08/15 02:05:42;;;;;;;9.18;6.35;;;22.20;99.90;;;;;;4975500;28;19930;-74
2022/08/15 02:08:08;;;;;;;;;;;22.20;99.90;;;;;;5001859;28;20042;-74
2022/08/15 02:10:33;;;;;;;9.20;6.57;;;22.10;99.90;;;;;;4980932;28;19941;-74
2022/08/15 02:12:59;;;;;;;;;;;22.10;99.90;;;;;;4986264;28;20052;-74
2022/08/15 02:15:25;;;;;;;9.45;6.53;;;22.10;99.90;;;;;;4998362;28;19927;-74
2022/08/15 02:17:51;;;;;;;;;;;22.10;99.90;;;;;;4982924;28;20541;-74
2022/08/15 02:20:18;;;;;;;10.90;6.68;;;22.10;99.90;;;;;;4986583;28;20066;-74
2022/08/15 02:22:44;;;;;;;9.65;6.45;;;22.10;99.90;;;;;;5003259;28;20130;-74
2022/08/15 02:25:10;;;;;;;;;;;22.00;99.90;;;;;;4981938;28;20041;-74
2022/08/15 02:27:37;;;;;;;10.40;6.55;;;22.00;99.90;;;;;;4976382;28;19922;-74
2022/08/15 02:30:12;;;;;;;9.82;6.15;;;22.00;99.90;;;;;;4982630;28;20057;-74
2022/08/15 02:32:39;;;;;;;10.13;6.63;;;22.00;99.90;;;;;;5002347;28;20041;-74
2022/08/15 02:35:07;;;;;;;11.38;6.65;;;22.00;99.90;;;;;;4971532;28;20046;-74
2022/08/15 02:37:33;;;;;;;10.95;6.82;;;22.00;99.90;;;;;;4980623;28;20054;-74
2022/08/15 02:39:59;;;;;;;10.02;6.88;;;22.00;99.90;;;;;;4982322;28;20144;-74
2022/08/15 02:42:25;;;;;;;;;;;22.00;99.90;;;;;;4987034;28;20132;-74
2022/08/15 02:44:52;;;;;;;9.80;7.22;;;22.00;99.90;;;;;;5010686;28;19968;-74
2022/08/15 02:47:18;;;;;;;14.50;7.53;;;21.90;99.90;;;;;;4966989;28;20060;-74
2022/08/15 02:49:45;;;;;;;12.13;7.30;;;22.00;99.90;;;;;;4980509;28;20046;-74
2022/08/15 02:52:12;;;;;;;12.27;8.30;;;22.00;99.90;;;;;;4984564;28;20119;-74
2022/08/15 02:54:39;;;;;;;10.43;7.35;;;21.90;99.90;;;;;;5012763;28;20053;-74
2022/08/15 02:57:06;;;;;;;12.10;8.00;;;22.00;99.90;;;;;;4998374;28;20423;-74
2022/08/15 02:59:32;;;;;;;12.48;7.50;;;22.00;99.90;;;;;;4980971;28;20077;-74
2022/08/15 03:01:59;;;;;;;11.50;7.00;;;22.00;99.90;;;;;;4995335;28;20379;-74
2022/08/15 03:04:25;;;;;;;11.98;7.32;;;22.00;99.90;;;;;;4998352;28;20042;-74
2022/08/15 03:06:53;;;;;;;12.50;7.15;;;22.00;99.90;;;;;;4991619;28;20042;-74
2022/08/15 03:09:21;;;;;;;13.35;7.63;;;22.00;99.90;;;;;;4988645;28;20084;-74
2022/08/15 03:11:47;;;;;;;11.90;7.25;;;22.00;99.90;;;;;;4970582;28;20078;-74
2022/08/15 03:14:16;;;;;;;10.98;7.32;;;22.00;99.90;;;;;;4997389;28;20041;-74
2022/08/15 03:16:45;;;;;;;12.77;7.68;;;21.90;99.90;;;;;;4998783;28;20133;-74
2022/08/15 03:19:16;;;;;;;12.00;7.90;;;21.90;99.90;;;;;;5000834;28;20053;-74
2022/08/15 03:21:43;;;;;;;12.57;9.00;;;21.90;99.90;;;;;;5000520;28;20041;-74
2022/08/15 03:24:09;;;;;;;10.63;7.55;;;22.00;99.90;;;;;;4966957;28;20073;-74
2022/08/15 03:26:35;;;;;;;12.45;7.93;;;21.90;99.90;;;;;;5002308;28;20100;-74
2022/08/15 03:29:01;;;;;;;;;;;21.90;99.90;;;;;;4995335;28;20046;-74
2022/08/15 03:31:26;;;;;;;11.73;8.63;;;21.90;99.90;;;;;;4971175;28;19937;-74
2022/08/15 03:33:52;;;;;;;;;;;21.80;99.90;;;;;;4993468;28;20511;-74
2022/08/15 03:36:21;;;;;;;13.50;8.63;;;21.80;99.90;;;;;;4994035;28;19929;-74
2022/08/15 03:38:47;;;;;;;14.25;9.88;;;21.80;99.90;;;;;;4977165;28;20253;-74
2022/08/15 03:41:14;;;;;;;12.75;9.38;;;21.80;99.90;;;;;;4983161;28;20134;-74
2022/08/15 03:43:42;;;;;;;12.88;9.32;;;21.70;99.90;;;;;;4989508;28;20062;-74
2022/08/15 03:46:11;;;;;;;12.30;8.60;;;21.70;99.90;;;;;;4999121;28;20490;-74
2022/08/15 03:48:42;;;;;;;15.45;10.10;;;21.70;99.90;;;;;;4975420;28;20071;-74
2022/08/15 03:51:09;;;;;;;13.18;9.18;;;21.70;99.90;;;;;;5001034;28;20113;-74
2022/08/15 03:53:44;;;;;;;13.90;9.85;;;21.70;99.90;;;;;;4984412;28;20070;-74
2022/08/15 03:56:13;;;;;;;18.77;10.32;;;21.60;99.90;;;;;;4975734;28;20041;-74
2022/08/15 03:58:39;;;;;;;15.48;9.57;;;21.60;99.90;;;;;;4972841;28;20046;-74
2022/08/15 04:01:09;;;;;;;16.65;10.90;;;21.60;99.90;;;;;;4990743;28;20435;-74
2022/08/15 04:03:35;;;;;;;14.10;10.13;;;21.50;99.90;;;;;;4987248;28;20054;-74
2022/08/15 04:06:01;;;;;;;;;;;21.50;99.90;;;;;;4988458;28;20103;-74
2022/08/15 04:08:30;;;;;;;16.48;9.75;;;21.50;99.90;;;;;;5004752;28;19921;-74
2022/08/15 04:10:59;;;;;;;15.20;10.77;;;21.50;99.90;;;;;;5004407;28;20042;-74
2022/08/15 04:13:25;;;;;;;14.57;10.10;;;21.40;99.90;;;;;;4962319;28;20152;-74
2022/08/15 04:15:52;;;;;;;;;;;21.50;99.90;;;;;;4979579;28;20188;-74
2022/08/15 04:18:18;;;;;;;14.40;9.75;;;21.40;99.90;;;;;;4999479;28;19940;-74
2022/08/15 04:20:43;;;;;;;;;;;21.40;99.90;;;;;;4995430;28;20049;-74
2022/08/15 04:23:09;;;;;;;17.98;9.50;;;21.40;99.90;;;;;;4985006;28;20286;-74
2022/08/15 04:25:36;;;;;;;;;;;21.30;99.90;;;;;;4987404;28;20241;-74
2022/08/15 04:28:05;;;;;;;13.48;9.55;;;21.40;99.90;;;;;;4990990;28;19937;-74
2022/08/15 04:30:42;;;;;;;11.98;8.38;;;21.30;99.90;;;;;;4974797;28;20104;-74
2022/08/15 04:33:11;;;;;;;12.38;8.50;;;21.30;99.90;;;;;;4975977;28;20046;-74
2022/08/15 04:35:40;;;;;;;11.50;8.05;;;21.30;99.90;;;;;;4986501;28;20061;-74
2022/08/15 04:38:06;;;;;;;11.35;8.68;;;21.30;99.90;;;;;;4993523;28;20463;-74
2022/08/15 04:40:32;;;;;;;11.30;8.10;;;21.30;99.90;;;;;;4990498;28;20102;-74
2022/08/15 04:42:58;;;;;;;11.82;7.93;;;21.30;99.90;;;;;;4996461;28;20038;-74
2022/08/15 04:45:26;;;;;;;9.85;7.47;;;21.30;99.90;;;;;;4992547;28;20263;-74
2022/08/15 04:47:52;;;;;;;10.60;7.20;;;21.20;99.90;;;;;;4993281;28;20050;-74
2022/08/15 04:50:18;;;;;;;;;;;21.20;99.90;;;;;;4997254;28;20042;-74
2022/08/15 04:52:55;;;;;;;14.05;7.65;;;21.30;99.90;;;;;;5009691;28;20256;-74
2022/08/15 04:55:24;;;;;;;11.73;7.40;;;21.20;99.90;;;;;;4995900;28;20468;-74
2022/08/15 04:57:50;;;;;;;12.73;7.95;;;21.20;99.90;;;;;;4994722;28;20065;-74
2022/08/15 05:00:17;;;;;;;;;;;21.20;99.90;;;;;;4988633;28;20053;-74
2022/08/15 05:03:08;;;;;;;9.40;6.78;;;21.30;99.90;;;;;;4977585;28;19917;-74
2022/08/15 05:05:37;;;;;;;12.30;7.03;;;21.30;99.90;;;;;;4979060;28;20124;-74
2022/08/15 05:08:02;;;;;;;11.00;7.65;;;21.30;99.90;;;;;;4979523;28;20129;-74
2022/08/15 05:10:28;;;;;;;;;;;21.30;99.90;;;;;;5001194;28;20216;-74
2022/08/15 05:12:54;;;;;;;10.80;6.88;;;21.40;99.90;;;;;;4998013;28;19928;-74
2022/08/15 05:15:21;;;;;;;9.52;6.57;;;21.40;99.90;;;;;;4976272;28;20080;-74
2022/08/15 05:17:47;;;;;;;11.35;7.28;;;21.40;99.90;;;;;;4990592;28;20065;-74
2022/08/15 05:20:15;;;;;;;14.45;7.45;;;21.40;99.90;;;;;;4995377;28;20066;-74
2022/08/15 05:23:03;;;;;;;14.05;6.78;;;21.40;99.90;;;;;;4993320;28;20654;-74
2022/08/15 05:25:30;;;;;;;9.77;7.10;;;21.40;99.90;;;;;;4996664;28;20145;-74
2022/08/15 05:27:56;;;;;;;9.63;7.13;;;21.50;99.90;;;;;;4996565;28;20038;-74
2022/08/15 05:30:22;;;;;;;;;;;21.50;99.90;;;;;;4981701;28;20045;-74
2022/08/15 05:32:59;;;;;;;17.47;7.33;;;21.50;99.90;;;;;;4978413;28;20062;-74
2022/08/15 05:35:25;;;;;;;12.27;7.47;;;21.60;99.90;;;;;;4983731;28;20445;-74
2022/08/15 05:37:51;;;;;;;;;;;21.60;99.90;;;;;;4984534;28;20042;-74
2022/08/15 05:40:17;;;;;;;13.52;6.43;;;21.50;99.90;;;;;;5010503;28;19917;-74
2022/08/15 05:42:49;;;;;;;;;;;21.60;99.90;;;;;;5000485;28;20399;-73
2022/08/15 05:45:26;;;;;;;11.68;7.05;;;21.60;99.90;;;;;;4998849;28;19944;-73
2022/08/15 05:48:32;;;;;;;12.32;7.50;;;21.70;99.90;;;;;;5011463;28;20118;-73
2022/08/15 05:51:10;;;;;;;11.88;7.57;;;21.80;99.90;;;;;;4904962;29;20047;-73
2022/08/15 05:54:11;;;;;;;10.93;7.72;;;21.80;99.90;;;;;;4903987;29;20120;-73
2022/08/15 05:56:36;;;;;;;12.18;7.15;;;21.80;99.90;;;;;;4979129;28;20136;-73
2022/08/15 05:59:04;;;;;;;;;;;21.80;99.90;;;;;;4982525;28;20637;-73
2022/08/15 06:01:42;;;;;;;10.98;7.85;;;21.90;99.90;;;;;;4976511;28;20358;-73
2022/08/15 06:04:49;;;;;;;11.20;7.47;;;21.90;99.90;;;;;;4985392;28;20093;-73
2022/08/15 06:07:16;;;;;;;12.38;8.18;;;21.90;99.90;;;;;;4979624;28;20096;-74
2022/08/15 06:09:59;;;;;;;12.25;7.40;;;21.90;99.90;;;;;;4964448;28;20303;-74
2022/08/15 06:12:40;;;;;;;11.63;7.72;;;22.00;99.90;;;;;;5002719;28;20049;-73
2022/08/15 06:15:20;;;;;;;10.68;7.05;;;22.00;99.90;;;;;;4991479;28;20480;-73
2022/08/15 06:17:54;;;;;;;10.27;6.90;;;22.00;99.90;;;;;;5015197;28;20814;-73
2022/08/15 06:20:23;;;;;;;10.77;7.07;;;22.10;99.90;;;;;;4985121;28;20120;-73
2022/08/15 06:23:05;;;;;;;11.00;7.28;;;22.10;99.90;;;;;;5003347;28;20045;-73
2022/08/15 06:25:41;;;;;;;11.43;7.03;;;22.10;99.90;;;;;;4985152;28;20119;-73
2022/08/15 06:28:38;;;;;;;10.90;7.65;;;22.10;99.90;;;;;;4968303;28;20120;-73
2022/08/15 06:31:25;;;;;;;12.32;7.40;;;22.10;99.90;;;;;;4980175;28;20100;-73
2022/08/15 06:34:18;;;;;;;9.38;6.63;;;22.20;99.90;;;;;;4974394;28;20080;-73
2022/08/15 06:36:55;;;;;;;12.40;6.90;;;22.20;99.90;;;;;;4983211;28;20500;-73
2022/08/15 06:39:49;;;;;;;11.40;6.95;;;22.20;99.90;;;;;;4997648;28;20091;-73
2022/08/15 06:42:35;;;;;;;10.18;5.93;;;22.30;99.90;;;;;;4995120;28;20213;-73
2022/08/15 06:45:22;;;;;;;10.25;6.75;;;22.30;99.90;;;;;;4995753;28;20052;-73
2022/08/15 06:47:54;;;;;;;10.45;6.53;;;22.40;99.90;;;;;;4987844;28;20194;-73
2022/08/15 06:50:24;;;;;;;14.07;8.15;;;22.40;99.90;;;;;;5000961;28;20188;-73
2022/08/15 06:52:56;;;;;;;10.98;7.25;;;22.40;99.90;;;;;;4990077;28;20129;-73
2022/08/15 06:55:24;;;;;;;10.57;7.03;;;22.50;99.90;;;;;;4997530;28;20468;-73
2022/08/15 06:57:58;;;;;;;10.25;6.97;;;22.50;99.90;;;;;;4995813;28;20042;-73
2022/08/15 07:00:46;;;;;;;10.02;7.03;;;22.60;99.90;;;;;;4998249;28;20667;-73
2022/08/15 07:03:32;;;;;;;9.93;6.70;;;22.60;99.90;;;;;;4980197;28;20053;-73
2022/08/15 07:05:58;;;;;;;9.50;6.28;;;22.60;99.90;;;;;;4998020;28;20687;-73
2022/08/15 07:08:27;;;;;;;;;;;22.70;99.90;;;;;;5002626;28;20041;-73
2022/08/15 07:11:09;;;;;;;9.38;6.60;;;22.70;99.90;;;;;;4987435;28;19924;-73
2022/08/15 07:13:57;;;;;;;8.82;6.15;;;22.80;99.90;;;;;;4997992;28;20405;-73
2022/08/15 07:16:32;;;;;;;8.80;5.85;;;22.80;99.90;;;;;;4997421;28;20474;-73
2022/08/15 07:19:00;;;;;;;9.37;6.80;;;23.00;99.90;;;;;;5000982;28;20046;-73
2022/08/15 07:21:26;;;;;;;10.18;5.50;;;22.90;99.90;;;;;;4995647;28;20817;-73
2022/08/15 07:23:59;;;;;;;;;;;23.00;99.90;;;;;;4993286;28;20045;-73
2022/08/15 07:26:27;;;;;;;11.38;6.45;;;23.00;99.90;;;;;;4989536;28;19966;-73
2022/08/15 07:28:58;;;;;;;9.23;6.10;;;23.00;99.90;;;;;;4999829;28;20129;-73
2022/08/15 07:31:33;;;;;;;9.13;6.25;;;23.10;99.90;;;;;;4998200;28;20046;-73
2022/08/15 07:34:05;;;;;;;8.23;6.43;;;23.10;99.90;;;;;;4998365;28;20052;-73
2022/08/15 07:36:34;;;;;;;9.20;6.15;;;23.20;99.90;;;;;;4983432;28;20127;-73
2022/08/15 07:39:19;;;;;;;8.68;6.47;;;23.30;99.90;;;;;;4963073;28;20192;-73
2022/08/15 07:41:45;;;;;;;8.68;6.25;;;23.40;99.90;;;;;;4995701;28;20464;-73
2022/08/15 07:44:18;;;;;;;;;;;23.50;99.90;;;;;;5001232;28;20052;-73
2022/08/15 07:46:52;;;;;;;11.65;6.32;;;23.60;99.90;;;;;;5001848;28;20012;-73
2022/08/15 07:49:25;;;;;;;8.80;5.82;;;23.60;99.90;;;;;;4972153;28;20042;-73
2022/08/15 07:52:05;;;;;;;8.60;5.95;;;23.60;99.90;;;;;;5001026;28;20056;-73
2022/08/15 07:54:37;;;;;;;9.43;6.75;;;23.70;99.90;;;;;;4994371;28;20034;-73
2022/08/15 07:57:06;;;;;;;8.70;5.45;;;23.80;99.90;;;;;;4994449;28;20053;-73
2022/08/15 07:59:36;;;;;;;9.80;5.75;;;23.90;99.90;;;;;;5002481;28;20136;-73
2022/08/15 08:02:19;;;;;;;7.88;5.80;;;24.00;99.90;;;;;;4991096;28;20046;-73
2022/08/15 08:04:45;;;;;;;8.20;5.57;;;24.00;99.90;;;;;;4979020;28;20053;-73
2022/08/15 08:07:23;;;;;;;9.70;6.03;;;24.10;99.90;;;;;;4994480;28;20507;-73
2022/08/15 08:10:31;;;;;;;9.63;5.97;;;24.20;99.90;;;;;;5012240;28;20128;-73
2022/08/15 08:13:16;;;;;;;7.22;5.35;;;24.30;99.90;;;;;;4990003;28;20046;-73
2022/08/15 08:16:01;;;;;;;8.70;6.00;;;24.40;99.90;;;;;;4963029;28;20523;-73
2022/08/15 08:18:47;;;;;;;7.63;5.60;;;24.50;99.90;;;;;;4994363;28;20103;-73
2022/08/15 08:21:16;;;;;;;10.13;6.05;;;24.50;99.90;;;;;;4976017;28;20046;-73
2022/08/15 08:23:49;;;;;;;8.23;5.80;;;24.60;99.90;;;;;;4995369;28;20077;-73
2022/08/15 08:26:23;;;;;;;8.32;5.55;;;24.70;99.90;;;;;;4976034;28;20250;-73
2022/08/15 08:29:27;;;;;;;8.65;5.95;;;24.70;99.90;;;;;;4999738;28;20170;-73
2022/08/15 08:32:01;;;;;;;8.50;5.55;;;24.80;99.90;;;;;;4982448;28;20478;-73
2022/08/15 08:34:35;;;;;;;6.40;5.05;;;24.80;99.90;;;;;;4990170;28;20049;-73
2022/08/15 08:37:29;;;;;;;7.13;4.90;;;24.90;99.90;;;;;;4972354;28;20113;-74
2022/08/15 08:41:24;;;;;;;7.60;4.75;;;24.90;99.90;;;;;;4976586;28;20116;-73
2022/08/15 08:43:33;;;;;;;8.13;5.63;;;25.00;99.90;;;;;;4978554;28;20061;-73
2022/08/15 08:46:29;;;;;;;8.40;5.03;;;25.10;99.90;;;;;;4926910;28;20049;-73
2022/08/15 08:49:39;;;;;;;7.75;5.50;;;25.20;99.90;;;;;;4930774;28;20043;-73
2022/08/15 08:52:13;;;;;;;8.05;6.03;;;25.30;99.90;;;;;;4977617;28;20084;-73
2022/08/15 08:54:57;;;;;;;6.47;5.32;;;25.30;99.90;;;;;;5012400;28;20115;-73
2022/08/15 08:57:26;;;;;;;7.63;4.95;;;25.40;99.90;;;;;;4988912;28;20183;-73
2022/08/15 09:00:05;;;;;;;7.45;5.40;;;25.50;99.90;;;;;;4996869;28;20631;-73
2022/08/15 09:02:39;;;;;;;7.22;5.20;;;25.50;99.90;;;;;;4997602;28;20048;-76
2022/08/15 09:05:25;;;;;;;8.25;5.55;;;25.60;99.90;;;;;;4981124;28;20451;-76
2022/08/15 09:07:54;;;;;;;;;;;25.60;99.90;;;;;;4997272;28;20567;-73
2022/08/15 09:10:29;;;;;;;10.63;5.45;;;25.60;99.90;;;;;;4961536;28;20102;-74
2022/08/15 09:15:42;;;;;;;;;;;25.80;99.90;;;;;;4999424;28;20060;-73
2022/08/15 09:18:14;;;;;;;7.77;5.67;;;25.90;99.90;;;;;;4999783;28;20399;-73
2022/08/15 09:20:41;;;;;;;8.15;5.70;;;25.90;99.90;;;;;;5000880;28;20124;-74
2022/08/15 09:23:10;;;;;;;8.25;6.40;;;26.00;99.90;;;;;;4976713;28;20396;-73
2022/08/15 09:25:55;;;;;;;9.40;5.65;;;26.10;99.90;;;;;;4996702;28;20404;-73
2022/08/15 09:28:30;;;;;;;7.85;5.88;;;26.20;99.90;;;;;;4984097;28;20207;-73
2022/08/15 09:30:59;;;;;;;9.35;6.63;;;26.30;99.90;;;;;;4994316;28;20030;-73
2022/08/15 09:34:09;;;;;;;10.25;6.03;;;26.40;99.90;;;;;;5000048;28;20141;-73
2022/08/15 09:36:48;;;;;;;8.68;6.15;;;26.50;99.90;;;;;;4969749;28;20063;-73
2022/08/15 09:39:40;;;;;;;8.15;5.93;;;26.60;99.90;;;;;;4999561;28;20091;-73
2022/08/15 09:42:40;;;;;;;7.60;5.63;;;26.70;99.90;;;;;;5001260;28;20046;-73
2022/08/15 09:45:11;;;;;;;13.70;5.68;;;26.70;99.90;;;;;;4991682;28;20045;-73
2022/08/15 09:47:38;;;;;;;9.02;5.93;;;26.80;99.90;;;;;;5012726;28;20116;-73
2022/08/15 09:50:31;;;;;;;10.43;6.97;;;26.90;99.90;;;;;;5004457;28;20081;-73
2022/08/15 09:53:17;;;;;;;8.23;6.00;;;27.00;99.90;;;;;;4981971;28;20088;-73
2022/08/15 09:55:46;;;;;;;9.50;6.83;;;27.10;99.90;;;;;;4997708;28;20125;-74
2022/08/15 09:58:23;;;;;;;9.65;7.00;;;27.10;99.90;;;;;;5000571;28;20042;-74
2022/08/15 10:01:19;;;;;;;8.57;6.88;;;27.20;99.90;;;;;;5008820;28;20508;-73
2022/08/15 10:03:44;;;;;;;13.68;7.32;;;27.20;99.90;;;;;;5003485;28;20049;-74
2022/08/15 10:06:48;;;;;;;8.70;6.68;;;27.30;99.90;;;;;;5002400;28;20061;-73
2022/08/15 10:09:32;;;;;;;9.85;5.93;;;27.30;99.90;;;;;;4967832;28;20135;-73
2022/08/15 10:12:06;;;;;;;9.57;5.95;;;27.40;99.90;;;;;;5003113;28;20100;-74
2022/08/15 10:14:47;;;;;;;7.72;5.57;;;27.40;99.90;;;;;;5001179;28;20076;-73
2022/08/15 10:17:34;;;;;;;9.25;6.13;;;27.50;99.90;;;;;;5010577;28;20056;-73
2022/08/15 10:20:22;;;;;;;8.93;6.22;;;27.60;99.90;;;;;;4998068;28;20464;-73
2022/08/15 10:22:53;;;;;;;7.93;5.95;;;27.60;99.90;;;;;;4975405;28;20054;-73
2022/08/15 10:25:40;;;;;;;8.35;5.90;;;27.60;99.90;;;;;;4980748;28;20450;-74
2022/08/15 10:28:12;;;;;;;10.57;5.78;;;27.60;99.90;;;;;;4981485;28;20062;-73
2022/08/15 10:31:09;;;;;;;9.15;6.38;;;27.70;99.90;;;;;;4872131;28;20431;-76
2022/08/15 10:33:44;;;;;;;8.32;6.20;;;27.70;99.90;;;;;;4781195;28;20563;-74
2022/08/15 10:36:13;;;;;;;7.55;5.45;;;27.70;99.90;;;;;;4839210;28;20037;-74
2022/08/15 10:39:03;;;;;;;10.73;6.03;;;27.80;99.90;;;;;;4992761;28;20146;-74
2022/08/15 10:41:41;;;;;;;8.35;6.07;;;27.90;99.90;;;;;;4810844;28;20429;-74
2022/08/15 10:44:22;;;;;;;9.25;5.80;;;27.90;99.90;;;;;;4987019;28;20046;-73
2022/08/15 10:47:14;;;;;;;8.18;6.53;;;27.90;99.90;;;;;;5009911;28;20037;-73
2022/08/15 10:49:55;;;;;;;8.40;6.03;;;27.90;99.90;;;;;;4971959;28;20125;-73
2022/08/15 10:52:41;;;;;;;8.20;5.63;;;27.80;99.90;;;;;;4814513;28;20327;-75
2022/08/15 10:55:10;;;;;;;8.80;6.18;;;27.80;99.90;;;;;;4842032;28;20107;-73
2022/08/15 10:58:00;;;;;;;8.45;6.05;;;27.70;99.90;;;;;;5013813;28;20030;-73
2022/08/15 11:00:44;;;;;;;8.13;5.82;;;27.60;99.80;;;;;;4977601;28;20053;-73
2022/08/15 11:03:40;;;;;;;8.70;5.65;;;27.50;99.70;;;;;;4857676;28;20066;-74
2022/08/15 11:06:14;;;;;;;8.90;6.07;;;27.50;99.60;;;;;;4981107;28;20116;-74
2022/08/15 11:08:46;;;;;;;8.38;6.30;;;27.40;99.80;;;;;;4990416;28;20049;-74
2022/08/15 11:11:13;;;;;;;9.02;6.03;;;27.40;99.70;;;;;;4994867;28;20472;-74
2022/08/15 11:13:50;;;;;;;7.50;5.45;;;27.30;99.70;;;;;;5021788;28;20154;-74
2022/08/15 11:16:24;;;;;;;9.48;5.85;;;27.30;99.80;;;;;;4903068;28;21032;-74
2022/08/15 11:18:55;;;;;;;8.60;5.78;;;27.30;99.90;;;;;;4774558;28;20450;-75
2022/08/15 11:21:30;;;;;;;9.57;6.15;;;27.20;99.90;;;;;;4792610;28;20362;-74
2022/08/15 11:24:01;;;;;;;7.80;5.80;;;27.10;99.90;;;;;;4972497;28;20380;-73
2022/08/15 11:26:32;;;;;;;8.50;6.30;;;27.10;99.90;;;;;;4989830;28;20042;-73
2022/08/15 11:29:14;;;;;;;9.57;6.85;;;27.10;99.90;;;;;;4980874;28;20073;-73
2022/08/15 11:31:55;;;;;;;10.02;6.47;;;27.00;99.90;;;;;;4983612;28;20125;-73
2022/08/15 11:34:27;;;;;;;9.30;7.03;;;27.00;99.90;;;;;;4982938;28;20054;-73
2022/08/15 11:36:58;;;;;;;10.45;7.63;;;26.90;99.90;;;;;;4998541;28;20100;-73
2022/08/15 11:39:28;;;;;;;8.57;6.88;;;26.90;99.90;;;;;;4982490;28;20073;-73
2022/08/15 11:41:58;;;;;;;9.25;6.82;;;26.80;99.90;;;;;;4988675;28;20554;-73
2022/08/15 11:44:36;;;;;;;10.45;6.80;;;26.90;99.90;;;;;;4995200;28;20046;-73
2022/08/15 11:47:05;;;;;;;8.02;6.30;;;26.80;99.90;;;;;;4996255;28;20168;-73
2022/08/15 11:49:34;;;;;;;12.57;6.82;;;26.90;99.90;;;;;;4980431;28;20172;-73
2022/08/15 11:52:08;;;;;;;8.77;6.53;;;26.90;99.90;;;;;;4998774;28;20037;-73
2022/08/15 11:54:35;;;;;;;11.55;7.32;;;27.00;99.90;;;;;;4987518;28;20160;-73
2022/08/15 11:57:04;;;;;;;11.25;8.00;;;27.10;99.90;;;;;;4998538;28;20046;-73
2022/08/15 11:59:33;;;;;;;9.52;6.78;;;27.20;99.90;;;;;;4972940;28;20147;-73
2022/08/15 12:02:06;;;;;;;10.00;7.55;;;27.20;99.90;;;;;;4986495;28;20484;-73
2022/08/15 12:04:34;;;;;;;9.25;6.82;;;27.30;99.90;;;;;;5018149;28;20085;-73
2022/08/15 12:07:23;;;;;;;11.43;8.48;;;27.30;99.90;;;;;;4965563;28;20057;-73
2022/08/15 12:09:54;;;;;;;11.40;7.95;;;27.30;99.90;;;;;;5003221;28;20054;-73
2022/08/15 12:12:26;;;;;;;11.45;8.13;;;27.30;99.90;;;;;;5007841;28;20202;-73
2022/08/15 12:14:56;;;;;;;10.68;7.40;;;27.30;99.90;;;;;;5000517;28;20483;-73
2022/08/15 12:17:28;;;;;;;10.85;8.13;;;27.30;99.90;;;;;;4981553;28;20050;-73
2022/08/15 12:19:55;;;;;;;12.05;8.63;;;27.30;99.90;;;;;;4980980;28;20086;-73
2022/08/15 12:22:32;;;;;;;8.77;7.03;;;27.30;99.90;;;;;;4988253;28;20507;-73
2022/08/15 12:24:58;;;;;;;12.88;9.68;;;27.10;99.90;;;;;;4992618;28;20037;-73
2022/08/15 12:27:24;;;;;;;11.73;7.70;;;27.10;99.90;;;;;;4977306;28;20069;-73
2022/08/15 12:29:50;;;;;;;10.57;8.05;;;27.00;99.90;;;;;;4980500;28;20073;-73
2022/08/15 12:32:16;;;;;;;11.57;7.82;;;27.00;99.90;;;;;;4987117;28;20548;-73
2022/08/15 12:34:51;;;;;;;13.38;8.55;;;27.00;99.90;;;;;;4977137;28;20064;-73
2022/08/15 12:37:20;;;;;;;12.40;7.68;;;27.00;99.90;;;;;;4977106;28;20046;-73
2022/08/15 12:39:57;;;;;;;15.27;8.25;;;27.00;99.90;;;;;;4983512;28;20420;-73
2022/08/15 12:42:32;;;;;;;9.40;7.30;;;26.90;99.90;;;;;;5007302;28;20049;-73
2022/08/15 12:45:06;;;;;;;9.73;6.60;;;26.90;99.90;;;;;;4995358;28;20065;-73
2022/08/15 12:47:33;;;;;;;5.32;3.90;;;27.00;99.90;;;;;;4995854;28;20446;-74
2022/08/15 12:50:01;;;;;;;5.35;4.10;;;26.90;99.90;;;;;;4983767;28;20053;-73
2022/08/15 12:52:27;;;;;;;6.80;5.00;;;26.90;99.90;;;;;;5000353;28;20045;-73
2022/08/15 12:54:52;;;;;;;5.28;3.90;;;26.80;99.90;;;;;;4984770;28;20036;-73
2022/08/15 12:57:19;;;;;;;5.95;4.00;;;26.70;99.90;;;;;;4970766;28;20396;-72
2022/08/15 12:59:45;;;;;;;7.22;5.38;;;26.70;99.90;;;;;;5002518;28;20297;-73
2022/08/15 13:02:13;;;;;;;5.95;4.32;;;26.70;99.90;;;;;;5004493;28;20045;-73
2022/08/15 13:04:44;;;;;;;6.15;3.65;;;26.80;99.90;;;;;;4997445;28;20164;-73
2022/08/15 13:07:12;;;;;;;5.45;3.70;;;26.80;99.90;;;;;;4999773;28;20069;-72
2022/08/15 13:09:38;;;;;;;5.68;3.95;;;26.90;99.90;;;;;;4987336;28;20740;-73
2022/08/15 13:12:04;;;;;;;4.80;3.67;;;27.00;99.90;;;;;;5001282;28;20129;-73
2022/08/15 13:14:30;;;;;;;5.57;3.83;;;27.00;99.90;;;;;;4981057;28;20046;-73
2022/08/15 13:16:56;;;;;;;4.22;3.03;;;27.00;99.80;;;;;;5007956;28;20060;-72
2022/08/15 13:19:25;;;;;;;5.55;3.25;;;27.00;99.70;;;;;;5010381;28;20080;-72
2022/08/15 13:24:37;;;;;;;4.75;2.67;;;27.10;98.70;;;;;;4989904;28;20538;-72
2022/08/15 13:27:07;;;;;;;3.92;2.90;;;27.10;98.30;;;;;;5010414;28;20033;-72
2022/08/15 13:29:34;;;;;;;4.43;2.58;;;27.10;97.80;;;;;;4991301;28;20176;-72